Terminal Aerodrome Forecast
Issued by NWS Atlanta, GA

Home | Current Version | Previous Version | Text Only | Print | Product List | Glossary On
Versions: 1 2 3 4 5 6 7 8 9 10 11 12 13 14 15 16 17 18 19 20 21 22 23 24 25 26
000
FTAK31 PAJN 282300
TAFAHN
TAF
PAHN 282324Z 2900/2924 10010KT P6SM -RA SCT020 OVC060
     FM290300 08006KT P6SM -RA BKN025 OVC050
     FM291300 31005KT 6SM -RA SCT010 BKN020 OVC030
     FM292000 11006KT P6SM -SHRA FEW010 BKN030 OVC060
      AMD LTD TO CLD VIS AND WIND=

USA.gov is the U.S. government's official web portal to all federal, state and local government web resources and services.